Data for 09/27/2010

Time Sea-Level Adjusted Pressure Absolute Pressure Temperature Relative Humidity Dew Point   
(mb) (inHg) (mb) (inHg) (C) (F) (%) (C) (F)
00:05 1023 30.21 852 25.16 14.8 58.6 36 -0.3 31.5
00:10 1023 30.21 852 25.16 15 59 35 -0.3 31.5
00:15 1023 30.21 852 25.16 15 58.9 36 -0 32
00:20 1023 30.21 852 25.16 15 58.9 35 -0.2 31.7
00:25 1023 30.21 852 25.16 14.8 58.6 36 0 32
00:30 1023 30.21 852 25.16 14.5 58.1 37 -0 31.9
00:35 1023 30.21 852 25.16 14.4 58 37 -0.1 31.9
00:40 1023 30.21 852 25.16 14.4 57.9 38 0.2 32.4
00:45 1023 30.21 852 25.16 14.1 57.4 38 0.2 32.4
00:50 1023 30.21 852 25.16 14 57.1 38 0.1 32.1
00:55 1023 30.21 852 25.16 14 57.1 38 0.1 32.1
01:00 1023 30.21 852 25.16 13.9 56.9 39 0.2 32.3
01:05 1023 30.21 852 25.16 13.9 57 39 0.1 32.1
01:10 1023 30.21 852 25.16 13.7 56.7 39 0.2 32.4
01:15 1023 30.21 852 25.16 13.6 56.4 41 0.5 32.8
01:20 1023 30.21 852 25.16 12.9 55.1 45 1.1 34.1
01:25 1023 30.21 852 25.16 12.2 53.9 45 0.7 33.2
01:30 1023 30.21 852 25.16 12.3 54.1 44 0.4 32.7
01:35 1023 30.21 852 25.16 12.3 54.2 45 0.7 33.3
01:40 1023 30.21 852 25.16 12.1 53.8 44 0.4 32.7
01:45 1023 30.21 852 25.16 12.4 54.3 43 0.2 32.4
01:50 1023 30.21 852 25.16 12.5 54.5 43 0.3 32.5
01:55 1023 30.21 853 25.19 13.3 55.9 38 -0.6 30.9
02:00 1023 30.21 853 25.19 13.9 57.1 36 -0.7 30.8
02:05 1023 30.21 853 25.19 14.2 57.6 37 -0.4 31.3
02:10 1023 30.21 853 25.19 14 57.1 38 -0.2 31.7
02:15 1024 30.24 853 25.19 13.5 56.2 41 0.4 32.7
02:20 1024 30.24 853 25.19 13.1 55.5 39 -0.4 31.4
02:25 1023 30.21 853 25.19 13.1 55.6 41 0.3 32.6
02:30 1024 30.24 853 25.19 12.8 55 42 0.1 32.2
02:35 1024 30.24 853 25.19 12.8 55.1 41 -0.1 31.9
02:40 1024 30.24 853 25.19 12.8 55 41 0.1 32.1
02:45 1024 30.24 853 25.19 13 55.3 40 -0.3 31.5
02:50 1024 30.24 853 25.19 13.4 56.1 39 -0.3 31.5
02:55 1024 30.24 853 25.19 13.5 56.2 38 -0.5 31.2
03:00 1024 30.24 853 25.19 13.7 56.6 38 -0.2 31.6
03:05 1024 30.24 853 25.19 13.4 56.2 40 0.2 32.4
03:10 1024 30.24 853 25.19 13 55.4 41 0 32
03:15 1024 30.24 853 25.19 13.1 55.5 40 -0.3 31.4
03:20 1024 30.24 853 25.19 13.4 56 39 -0.2 31.6
03:25 1024 30.24 853 25.19 13.5 56.4 39 -0.2 31.6
03:30 1024 30.24 853 25.19 13.6 56.5 38 -0.2 31.6
03:35 1024 30.24 853 25.19 13.4 56.1 39 -0.1 31.9
03:40 1024 30.24 853 25.19 13.1 55.7 40 -0.1 31.7
03:45 1024 30.24 853 25.19 13.1 55.5 39 -0.5 31.2
03:50 1024 30.24 853 25.19 13 55.5 40 -0.1 31.9
03:55 1024 30.24 853 25.19 12.6 54.6 43 0.4 32.8
04:00 1024 30.24 853 25.19 12 53.6 45 0.6 33
04:05 1024 30.24 853 25.19 11.9 53.5 44 0.1 32.2
04:10 1024 30.24 853 25.19 12.1 53.8 44 0.2 32.4
04:15 1024 30.24 853 25.19 12 53.5 45 0.5 32.9
04:20 1024 30.24 853 25.19 11.8 53.3 45 0.3 32.6
04:25 1024 30.24 853 25.19 12 53.6 44 0.2 32.3
04:30 1024 30.24 853 25.19 12 53.5 45 0.5 33
04:35 1024 30.24 853 25.19 11.7 53.1 46 0.5 32.9
04:40 1024 30.24 853 25.19 11.7 53.1 47 0.8 33.4
04:45 1024 30.24 853 25.19 11.2 52.1 49 1 33.9
04:50 1024 30.24 853 25.19 10.7 51.3 49 0.5 32.9
04:55 1024 30.24 853 25.19 10.8 51.5 49 0.6 33.1
05:00 1024 30.24 853 25.19 10.8 51.5 49 0.6 33
05:05 1024 30.24 853 25.19 11.1 52 46 -0.1 31.8
05:10 1024 30.24 853 25.19 11.8 53.3 44 0 32
05:15 1024 30.24 853 25.19 12.2 54 42 -0.2 31.7
05:20 1024 30.24 853 25.19 12.3 54.2 44 0.3 32.6
05:25 1024 30.24 853 25.19 11.9 53.5 45 0.4 32.8
05:30 1024 30.24 853 25.19 11.7 53 47 0.7 33.3
05:35 1024 30.24 853 25.19 11.4 52.6 46 0.4 32.6
05:40 1024 30.24 853 25.19 11.6 52.8 46 0.3 32.5
05:45 1024 30.24 854 25.22 11.6 52.8 47 0.8 33.4
05:50 1024 30.24 854 25.22 11.2 52.2 47 0.4 32.8
05:55 1024 30.24 854 25.22 11.7 53 45 0.1 32.2
06:00 1024 30.24 854 25.22 11.7 53 45 0.3 32.5
06:05 1024 30.24 854 25.22 11.8 53.2 45 0.3 32.6
06:10 1024 30.24 854 25.22 11.7 53 46 0.4 32.7
06:15 1024 30.24 854 25.22 11.5 52.6 47 0.7 33.2
06:20 1024 30.24 854 25.22 11.3 52.3 47 0.5 32.8
06:25 1024 30.24 854 25.22 11.3 52.3 48 0.7 33.2
06:30 1024 30.24 854 25.22 11.2 52.2 47 0.4 32.8
06:35 1024 30.24 854 25.22 11.4 52.4 46 0.1 32.2
06:40 1024 30.24 854 25.22 11.5 52.7 47 0.6 33.1
06:45 1024 30.24 854 25.22 11.3 52.4 48 0.7 33.2
06:50 1025 30.27 854 25.22 11 51.8 50 1 33.9
06:55 1025 30.27 854 25.22 10.9 51.7 47 0.2 32.4
07:00 1025 30.27 854 25.22 11.8 53.2 44 0 32.1
07:05 1025 30.27 854 25.22 11.8 53.3 46 0.5 33
07:10 1025 30.27 854 25.22 11.5 52.6 46 0.3 32.6
07:15 1024 30.24 854 25.22 11.3 52.4 47 0.5 32.9
07:20 1025 30.27 854 25.22 11.2 52.1 47 0.4 32.8
07:25 1025 30.27 854 25.22 11.3 52.3 47 0.4 32.7
07:30 1025 30.27 854 25.22 11.4 52.6 46 0.3 32.5
07:35 1025 30.27 854 25.22 11.4 52.5 47 0.5 32.9
07:40 1025 30.27 854 25.22 11.3 52.4 47 0.5 33
07:45 1025 30.27 854 25.22 11.4 52.5 47 0.4 32.8
07:50 1025 30.27 854 25.22 11.7 53 45 0.2 32.3
07:55 1025 30.27 854 25.22 12 53.7 45 0.4 32.7
08:00 1025 30.27 854 25.22 12.1 53.8 45 0.4 32.8
08:05 1025 30.27 854 25.22 12.2 54 44 0.3 32.6
08:10 1025 30.27 854 25.22 12.4 54.4 44 0.6 33
08:15 1025 30.27 854 25.22 12.7 54.9 43 0.6 33.1
08:20 1025 30.27 854 25.22 13 55.4 43 0.6 33.1
08:25 1025 30.27 854 25.22 13.2 55.7 42 0.5 33
08:30 1025 30.27 854 25.22 13.5 56.2 42 0.7 33.3
08:35 1025 30.27 854 25.22 13.6 56.5 42 1.1 33.9
08:40 1025 30.27 854 25.22 14 57.2 41 1 33.7
08:45 1025 30.27 854 25.22 14.3 57.8 40 0.8 33.5
08:50 1025 30.27 854 25.22 14.6 58.3 38 0.6 33.1
08:55 1025 30.27 854 25.22 14.7 58.5 40 1.2 34.1
09:00 1025 30.27 854 25.22 15.1 59.1 37 0.6 33.2
09:05 1025 30.27 854 25.22 15.3 59.5 38 1.1 34
09:10 1025 30.27 854 25.22 15.7 60.3 39 2 35.5
09:15 1025 30.27 854 25.22 15.9 60.6 39 2 35.5
09:20 1025 30.27 854 25.22 16 60.8 39 2.2 36
09:25 1025 30.27 854 25.22 16.7 62 35 1.1 34
09:30 1025 30.27 854 25.22 17 62.7 36 1.9 35.4
09:35 1025 30.27 854 25.22 17.3 63.1 30 -0.5 31.2
09:40 1025 30.27 854 25.22 17.3 63.2 32 0.4 32.8
09:45 1025 30.27 854 25.22 17.1 62.7 33 1 33.8
09:50 1025 30.27 854 25.22 18 64.4 30 0.2 32.4
09:55 1025 30.27 854 25.22 18.9 65.9 30 0.9 33.6
10:00 1025 30.27 854 25.22 19.1 66.4 30 1.2 34.2
10:05 1025 30.27 854 25.22 19.3 66.8 31 2 35.5
10:10 1025 30.27 854 25.22 19.3 66.7 31 1.9 35.4
10:15 1025 30.27 854 25.22 19 66.3 31 1.9 35.3
10:20 1025 30.27 854 25.22 19.1 66.4 30 1.3 34.3
10:25 1025 30.27 854 25.22 19.7 67.5 28 1 33.8
10:30 1025 30.27 854 25.22 20.1 68.1 27 0.9 33.5
10:35 1025 30.27 854 25.22 20.4 68.8 28 1.5 34.7
10:40 1025 30.27 854 25.22 20.8 69.4 28 1.7 35.1
10:45 1025 30.27 854 25.22 21.1 70.1 27 1.3 34.4
10:50 1025 30.27 854 25.22 21.4 70.6 25 0.9 33.5
10:55 1025 30.27 854 25.22 20.3 68.6 28 1.5 34.7
11:00 1025 30.27 854 25.22 20.7 69.3 27 1 33.8
11:05 1025 30.27 854 25.22 21.2 70.2 27 1.4 34.6
11:10 1025 30.27 854 25.22 21.4 70.6 26 1.4 34.5
11:15 1025 30.27 854 25.22 21 69.9 27 1.7 35.1
11:20 1025 30.27 854 25.22 21.1 69.9 27 1.6 34.8
11:25 1025 30.27 854 25.22 20.7 69.3 28 1.9 35.5
11:30 1025 30.27 854 25.22 21.3 70.3 26 1.2 34.1
11:35 1025 30.27 854 25.22 21.4 70.5 27 1.9 35.4
11:40 1025 30.27 854 25.22 20.7 69.3 27 1.2 34.1
11:45 1025 30.27 854 25.22 21.2 70.2 26 1.1 34
11:50 1025 30.27 854 25.22 22.5 72.4 25 1.6 35
11:55 1025 30.27 854 25.22 23.3 73.9 24 2 35.6
12:00 1025 30.27 854 25.22 23.5 74.3 25 2.5 36.6
12:05 1025 30.27 854 25.22 23.1 73.6 24 1.7 35
12:10 1025 30.27 854 25.22 23.2 73.7 24 1.4 34.6
12:15 1025 30.27 854 25.22 23.8 74.8 24 2.2 36
12:20 1025 30.27 854 25.22 23.2 73.7 25 2.4 36.3
12:25 1025 30.27 854 25.22 23.1 73.7 26 2.8 37.1
12:30 1025 30.27 854 25.22 22.9 73.3 25 2.3 36.2
12:35 1025 30.27 854 25.22 23 73.5 24 1.7 35
12:40 1025 30.27 854 25.22 24 75.2 23 2.1 35.7
12:45 1025 30.27 854 25.22 24.6 76.4 23 2.2 35.9
12:50 1025 30.27 854 25.22 24.5 76 23 2.4 36.4
12:55 1024 30.24 854 25.22 23.6 74.4 24 2 35.6
13:00 1024 30.24 854 25.22 24.1 75.4 22 1.4 34.6
13:05 1024 30.24 854 25.22 25 77 21 1.7 35
13:10 1024 30.24 854 25.22 24.9 76.7 23 2.3 36.1
13:15 1024 30.24 853 25.19 24.2 75.6 22 1.4 34.5
13:20 1024 30.24 853 25.19 23.8 74.8 23 1.8 35.2
13:25 1024 30.24 853 25.19 23.9 75 23 1.7 35.1
13:30 1024 30.24 853 25.19 23.8 74.8 23 1.7 35
13:35 1024 30.24 853 25.19 23.6 74.5 23 1.6 34.8
13:40 1024 30.24 853 25.19 24.3 75.7 21 0.7 33.3
13:45 1024 30.24 853 25.19 24.6 76.3 21 1 33.8
13:50 1024 30.24 853 25.19 24.8 76.7 20 0.3 32.5
13:55 1024 30.24 853 25.19 24.2 75.5 21 0.8 33.4
14:00 1024 30.24 853 25.19 24.9 76.8 20 1 33.7
14:05 1024 30.24 853 25.19 26 78.9 18 0.5 32.9
14:10 1024 30.24 853 25.19 25.6 78 21 1.6 34.8
14:15 1024 30.24 853 25.19 25.3 77.5 20 0.9 33.7
14:20 1024 30.24 853 25.19 25.2 77.3 21 1.6 34.9
14:25 1024 30.24 853 25.19 25.1 77.2 20 0.7 33.2
14:30 1024 30.24 853 25.19 25.3 77.6 20 1 33.8
14:35 1023 30.21 853 25.19 26.1 79 20 1.6 34.8
14:40 1023 30.21 853 25.19 25.7 78.3 20 1.4 34.6
14:45 1023 30.21 853 25.19 25.1 77.3 22 1.9 35.4
14:50 1023 30.21 853 25.19 25.1 77.2 21 1.7 35.1
14:55 1023 30.21 853 25.19 26.2 79.1 19 1.3 34.4
15:00 1023 30.21 852 25.16 27 80.6 19 1.5 34.7
15:05 1023 30.21 852 25.16 26.5 79.6 21 2.5 36.5
15:10 1023 30.21 852 25.16 26.5 79.7 20 2 35.6
15:15 1023 30.21 852 25.16 26.7 80.1 21 2.7 36.8
15:20 1023 30.21 852 25.16 27 80.6 20 2.3 36.1
15:25 1023 30.21 852 25.16 27.1 80.8 20 2.7 36.9
15:30 1023 30.21 852 25.16 27.6 81.6 20 2.6 36.7
15:35 1023 30.21 852 25.16 27.4 81.3 20 3 37.5
15:40 1023 30.21 852 25.16 27.6 81.6 19 2 35.6
15:45 1023 30.21 852 25.16 27.4 81.3 20 2.5 36.5
15:50 1023 30.21 852 25.16 27.5 81.4 19 2.4 36.3
15:55 1023 30.21 852 25.16 27.5 81.6 20 3 37.4
16:00 1023 30.21 852 25.16 27.4 81.3 20 2.6 36.8
16:05 1023 30.21 852 25.16 27 80.6 21 3 37.4
16:10 1023 30.21 852 25.16 26.2 79.2 21 2.6 36.6
16:15 1022 30.18 852 25.16 27.1 80.9 20 2.6 36.7
16:20 1022 30.18 852 25.16 27.1 80.7 21 2.9 37.3
16:25 1022 30.18 852 25.16 26.4 79.5 22 3.1 37.6
16:30 1022 30.18 852 25.16 27 80.5 21 3 37.4
16:35 1022 30.18 851 25.13 27.6 81.6 21 3.4 38.2
16:40 1022 30.18 851 25.13 27.7 81.8 21 3.4 38.1
16:45 1022 30.18 851 25.13 27.6 81.7 20 2.8 37.1
16:50 1022 30.18 851 25.13 27.1 80.7 21 3 37.4
16:55 1022 30.18 851 25.13 27.1 80.7 20 2.7 36.9
17:00 1022 30.18 851 25.13 26.8 80.2 22 3.3 38
17:05 1022 30.18 851 25.13 26.7 80.1 21 3.1 37.6
17:10 1022 30.18 851 25.13 27 80.7 20 2.7 36.8
17:15 1022 30.18 851 25.13 26.7 80.1 21 3.2 37.8
17:20 1022 30.18 851 25.13 26.7 80 22 3.3 37.9
17:25 1022 30.18 851 25.13 27 80.6 20 2.6 36.6
17:30 1022 30.18 851 25.13 26.9 80.4 21 3.3 38
17:35 1022 30.18 851 25.13 26.9 80.4 21 3.3 38
17:40 1022 30.18 851 25.13 27.5 81.4 21 3.3 37.9
17:45 1022 30.18 851 25.13 27.5 81.5 22 4.4 40
17:50 1022 30.18 851 25.13 27.4 81.3 21 3.2 37.8
17:55 1022 30.18 851 25.13 27.5 81.5 21 3.5 38.2
18:00 1022 30.18 851 25.13 27.6 81.7 20 3.1 37.6
18:05 1022 30.18 851 25.13 27.6 81.6 21 3.8 38.8
18:10 1022 30.18 851 25.13 27.5 81.5 22 4.3 39.7
18:15 1022 30.18 851 25.13 27.4 81.2 22 4.4 39.9
18:20 1022 30.18 851 25.13 27.3 81.1 23 4.5 40.1
18:25 1022 30.18 851 25.13 26.9 80.4 24 5.1 41.2
18:30 1022 30.18 851 25.13 26.6 79.9 24 4.8 40.6
18:35 1022 30.18 851 25.13 26.1 79 27 5.7 42.3
18:40 1022 30.18 851 25.13 24.9 76.7 28 5.3 41.6
18:45 1022 30.18 851 25.13 24.3 75.7 33 7.1 44.7
18:50 1022 30.18 851 25.13 23.6 74.5 35 7.5 45.5
18:55 1022 30.18 851 25.13 23.2 73.7 37 7.8 46.1
19:00 1022 30.18 851 25.13 22.2 72 40 8.3 46.9
19:05 1022 30.18 851 25.13 21.2 70.2 42 7.9 46.2
19:10 1022 30.18 851 25.13 20.9 69.6 42 7.6 45.7
19:15 1022 30.18 851 25.13 20.5 69 45 8.4 47
19:20 1022 30.18 851 25.13 20 68.1 44 7.5 45.5
19:25 1022 30.18 851 25.13 19.7 67.4 45 7.7 45.8
19:30 1022 30.18 851 25.13 19.5 67.2 45 7.5 45.5
19:35 1022 30.18 851 25.13 19.4 66.8 44 7.1 44.7
19:40 1022 30.18 851 25.13 19.3 66.7 45 7.1 44.8
19:45 1022 30.18 851 25.13 19.2 66.6 45 7.2 44.9
19:50 1022 30.18 851 25.13 19 66.2 46 7.2 45
19:55 1022 30.18 851 25.13 18.8 65.8 47 7.5 45.5
20:00 1022 30.18 851 25.13 18.6 65.5 47 7.2 45
20:05 1022 30.18 851 25.13 18.5 65.4 47 7.1 44.8
20:10 1022 30.18 851 25.13 18.2 64.8 48 7.2 44.9
20:15 1022 30.18 851 25.13 17.8 64 50 7.3 45.1
20:20 1022 30.18 851 25.13 17.4 63.2 51 7.2 45
20:25 1022 30.18 851 25.13 17.2 62.9 52 7.2 45
20:30 1022 30.18 851 25.13 17 62.6 52 7.1 44.7
20:35 1022 30.18 851 25.13 16.9 62.4 51 6.9 44.3
20:40 1022 30.18 851 25.13 16.9 62.4 50 6.6 43.8
20:45 1022 30.18 851 25.13 17 62.6 49 6.4 43.5
20:50 1022 30.18 851 25.13 17.1 62.7 50 6.6 43.9
20:55 1022 30.18 851 25.13 17 62.7 49 6.3 43.3
21:00 1022 30.18 851 25.13 17 62.6 49 6.4 43.5
21:05 1022 30.18 851 25.13 16.8 62.3 50 6.4 43.6
21:10 1022 30.18 851 25.13 16.8 62.2 50 6.4 43.5
21:15 1022 30.18 851 25.13 16.7 62.1 50 6.3 43.3
21:20 1022 30.18 851 25.13 16.7 62.1 49 6.2 43.1
21:25 1022 30.18 851 25.13 16.5 61.7 50 6.2 43.2
21:30 1022 30.18 851 25.13 16.3 61.4 51 6.3 43.3
21:35 1022 30.18 851 25.13 16.3 61.3 50 5.9 42.7
21:40 1022 30.18 851 25.13 16.5 61.6 48 5.4 41.7
21:45 1022 30.18 851 25.13 17 62.5 46 5.3 41.5
21:50 1022 30.18 851 25.13 17 62.5 45 5.2 41.3
21:55 1022 30.18 851 25.13 17.3 63.1 44 5.1 41.1
22:00 1022 30.18 851 25.13 17.1 62.8 46 5.6 42.2
22:05 1022 30.18 851 25.13 16.7 62.1 46 5.2 41.3
22:10 1022 30.18 851 25.13 16.7 62.1 45 5 40.9
22:15 1022 30.18 851 25.13 17 62.6 44 4.8 40.6
22:20 1022 30.18 851 25.13 17 62.7 45 5.1 41.3
22:25 1022 30.18 851 25.13 16.9 62.5 47 5.7 42.3
22:30 1022 30.18 851 25.13 17.2 63 43 4.5 40.1
22:35 1022 30.18 851 25.13 17.5 63.4 43 4.8 40.7
22:40 1022 30.18 851 25.13 17.4 63.3 43 4.9 40.9
22:45 1022 30.18 851 25.13 17.1 62.8 44 4.8 40.6
22:50 1022 30.18 851 25.13 17 62.6 44 4.8 40.7
22:55 1022 30.18 851 25.13 16.8 62.2 46 5.1 41.2
23:00 1022 30.18 851 25.13 16.4 61.6 46 5 40.9
23:05 1022 30.18 851 25.13 16.3 61.3 47 5 40.9
23:10 1022 30.18 851 25.13 16.2 61.2 48 5.2 41.4
23:15 1022 30.18 851 25.13 16.2 61.2 47 4.9 40.9
23:20 1022 30.18 851 25.13 16.2 61.1 47 5 41
23:25 1022 30.18 851 25.13 16 60.7 47 4.8 40.6
23:30 1022 30.18 851 25.13 16.2 61.2 46 4.6 40.3
23:35 1022 30.18 851 25.13 16.6 61.9 44 4.3 39.7
23:40 1022 30.18 851 25.13 16.8 62.2 46 5.3 41.5
23:45 1022 30.18 851 25.13 16.7 62 47 5.4 41.7
23:50 1022 30.18 851 25.13 16.6 61.9 45 4.6 40.3
23:55 1022 30.18 851 25.13 16.5 61.7 45 4.6 40.2
24:00 1022 30.18 851 25.13 16.4 61.5 45 4.5 40.1